sensor_id;sensor_type;location;lat;lon;timestamp;P1;durP1;ratioP1;P2;durP2;ratioP2
21239;SDS011;10778;48.962;9.018;2022-10-16T00:00:00;2.78;;;1.25;;
21239;SDS011;10778;48.962;9.018;2022-10-16T00:02:26;3.33;;;1.50;;
21239;SDS011;10778;48.962;9.018;2022-10-16T00:04:52;3.08;;;1.20;;
21239;SDS011;10778;48.962;9.018;2022-10-16T00:07:20;3.67;;;1.30;;
21239;SDS011;10778;48.962;9.018;2022-10-16T00:09:46;8.55;;;1.50;;
21239;SDS011;10778;48.962;9.018;2022-10-16T00:12:12;4.65;;;1.20;;
21239;SDS011;10778;48.962;9.018;2022-10-16T00:14:38;4.15;;;1.40;;
21239;SDS011;10778;48.962;9.018;2022-10-16T00:17:06;3.70;;;1.38;;
21239;SDS011;10778;48.962;9.018;2022-10-16T00:19:32;5.43;;;1.70;;
21239;SDS011;10778;48.962;9.018;2022-10-16T00:21:58;3.78;;;1.33;;
21239;SDS011;10778;48.962;9.018;2022-10-16T00:24:24;1.90;;;1.35;;
21239;SDS011;10778;48.962;9.018;2022-10-16T00:26:50;5.75;;;1.60;;
21239;SDS011;10778;48.962;9.018;2022-10-16T00:29:16;4.75;;;1.38;;
21239;SDS011;10778;48.962;9.018;2022-10-16T00:31:42;5.18;;;1.33;;
21239;SDS011;10778;48.962;9.018;2022-10-16T00:34:08;3.83;;;1.27;;
21239;SDS011;10778;48.962;9.018;2022-10-16T00:36:34;5.05;;;1.30;;
21239;SDS011;10778;48.962;9.018;2022-10-16T00:39:00;6.45;;;1.40;;
21239;SDS011;10778;48.962;9.018;2022-10-16T00:41:27;2.55;;;1.45;;
21239;SDS011;10778;48.962;9.018;2022-10-16T00:43:57;2.58;;;1.33;;
21239;SDS011;10778;48.962;9.018;2022-10-16T00:46:26;4.50;;;1.30;;
21239;SDS011;10778;48.962;9.018;2022-10-16T00:51:35;4.43;;;1.60;;
21239;SDS011;10778;48.962;9.018;2022-10-16T00:54:04;6.70;;;1.55;;
21239;SDS011;10778;48.962;9.018;2022-10-16T00:56:34;5.80;;;1.30;;
21239;SDS011;10778;48.962;9.018;2022-10-16T00:59:01;4.35;;;1.30;;
21239;SDS011;10778;48.962;9.018;2022-10-16T01:01:34;6.22;;;1.35;;
21239;SDS011;10778;48.962;9.018;2022-10-16T01:04:00;9.05;;;1.70;;
21239;SDS011;10778;48.962;9.018;2022-10-16T01:10:02;2.67;;;1.45;;
21239;SDS011;10778;48.962;9.018;2022-10-16T01:12:28;3.05;;;1.38;;
21239;SDS011;10778;48.962;9.018;2022-10-16T01:15:17;9.10;;;1.95;;
21239;SDS011;10778;48.962;9.018;2022-10-16T01:17:49;8.43;;;1.60;;
21239;SDS011;10778;48.962;9.018;2022-10-16T01:23:29;5.10;;;1.42;;
21239;SDS011;10778;48.962;9.018;2022-10-16T01:28:40;7.80;;;1.60;;
21239;SDS011;10778;48.962;9.018;2022-10-16T01:31:16;7.78;;;1.83;;
21239;SDS011;10778;48.962;9.018;2022-10-16T01:33:47;9.65;;;1.70;;
21239;SDS011;10778;48.962;9.018;2022-10-16T01:36:21;8.13;;;1.45;;
21239;SDS011;10778;48.962;9.018;2022-10-16T01:38:52;4.57;;;1.60;;
21239;SDS011;10778;48.962;9.018;2022-10-16T01:41:27;8.32;;;1.77;;
21239;SDS011;10778;48.962;9.018;2022-10-16T01:46:23;7.22;;;1.70;;
21239;SDS011;10778;48.962;9.018;2022-10-16T01:48:50;10.00;;;1.80;;
21239;SDS011;10778;48.962;9.018;2022-10-16T01:51:17;9.48;;;1.70;;
21239;SDS011;10778;48.962;9.018;2022-10-16T01:53:47;8.88;;;2.00;;
21239;SDS011;10778;48.962;9.018;2022-10-16T01:56:17;7.60;;;1.67;;
21239;SDS011;10778;48.962;9.018;2022-10-16T01:58:55;7.55;;;1.88;;
21239;SDS011;10778;48.962;9.018;2022-10-16T02:01:27;5.20;;;1.60;;
21239;SDS011;10778;48.962;9.018;2022-10-16T02:03:57;3.80;;;1.75;;
21239;SDS011;10778;48.962;9.018;2022-10-16T02:06:29;9.25;;;1.70;;
21239;SDS011;10778;48.962;9.018;2022-10-16T02:08:55;6.47;;;1.90;;
21239;SDS011;10778;48.962;9.018;2022-10-16T02:11:21;7.07;;;1.60;;
21239;SDS011;10778;48.962;9.018;2022-10-16T02:13:53;8.77;;;1.70;;
21239;SDS011;10778;48.962;9.018;2022-10-16T02:16:32;4.13;;;1.50;;
21239;SDS011;10778;48.962;9.018;2022-10-16T02:19:00;3.83;;;1.58;;
21239;SDS011;10778;48.962;9.018;2022-10-16T02:21:28;4.68;;;1.80;;
21239;SDS011;10778;48.962;9.018;2022-10-16T02:24:01;8.90;;;1.80;;
21239;SDS011;10778;48.962;9.018;2022-10-16T02:26:37;7.53;;;1.60;;
21239;SDS011;10778;48.962;9.018;2022-10-16T02:29:13;5.65;;;1.40;;
21239;SDS011;10778;48.962;9.018;2022-10-16T02:31:45;5.50;;;1.45;;
21239;SDS011;10778;48.962;9.018;2022-10-16T02:34:15;4.13;;;1.33;;
21239;SDS011;10778;48.962;9.018;2022-10-16T02:36:44;8.90;;;1.75;;
21239;SDS011;10778;48.962;9.018;2022-10-16T02:39:12;8.80;;;1.52;;
21239;SDS011;10778;48.962;9.018;2022-10-16T02:41:40;3.63;;;1.38;;
21239;SDS011;10778;48.962;9.018;2022-10-16T02:44:06;7.65;;;1.50;;
21239;SDS011;10778;48.962;9.018;2022-10-16T02:46:32;4.60;;;1.55;;
21239;SDS011;10778;48.962;9.018;2022-10-16T02:48:58;6.20;;;1.70;;
21239;SDS011;10778;48.962;9.018;2022-10-16T02:51:24;4.35;;;1.48;;
21239;SDS011;10778;48.962;9.018;2022-10-16T02:53:51;6.05;;;1.67;;
21239;SDS011;10778;48.962;9.018;2022-10-16T02:56:17;8.18;;;1.73;;
21239;SDS011;10778;48.962;9.018;2022-10-16T02:58:43;11.00;;;1.65;;
21239;SDS011;10778;48.962;9.018;2022-10-16T03:01:10;5.07;;;1.38;;
21239;SDS011;10778;48.962;9.018;2022-10-16T03:03:38;9.60;;;1.35;;
21239;SDS011;10778;48.962;9.018;2022-10-16T03:06:04;7.47;;;1.50;;
21239;SDS011;10778;48.962;9.018;2022-10-16T03:08:30;10.02;;;1.60;;
21239;SDS011;10778;48.962;9.018;2022-10-16T03:10:56;9.05;;;1.70;;
21239;SDS011;10778;48.962;9.018;2022-10-16T03:13:22;4.93;;;1.30;;
21239;SDS011;10778;48.962;9.018;2022-10-16T03:15:48;7.60;;;1.38;;
21239;SDS011;10778;48.962;9.018;2022-10-16T03:18:14;8.90;;;1.50;;
21239;SDS011;10778;48.962;9.018;2022-10-16T03:20:42;5.38;;;1.30;;
21239;SDS011;10778;48.962;9.018;2022-10-16T03:23:08;3.67;;;1.20;;
21239;SDS011;10778;48.962;9.018;2022-10-16T03:25:34;9.93;;;1.33;;
21239;SDS011;10778;48.962;9.018;2022-10-16T03:28:01;6.53;;;1.35;;
21239;SDS011;10778;48.962;9.018;2022-10-16T03:30:27;5.25;;;1.63;;
21239;SDS011;10778;48.962;9.018;2022-10-16T03:32:53;4.80;;;1.13;;
21239;SDS011;10778;48.962;9.018;2022-10-16T03:35:20;5.70;;;1.45;;
21239;SDS011;10778;48.962;9.018;2022-10-16T03:37:50;5.68;;;1.30;;
21239;SDS011;10778;48.962;9.018;2022-10-16T03:40:16;3.63;;;1.42;;
21239;SDS011;10778;48.962;9.018;2022-10-16T03:42:43;7.40;;;1.70;;
21239;SDS011;10778;48.962;9.018;2022-10-16T03:45:10;3.72;;;1.50;;
21239;SDS011;10778;48.962;9.018;2022-10-16T03:47:36;14.73;;;1.60;;
21239;SDS011;10778;48.962;9.018;2022-10-16T03:50:03;9.07;;;1.83;;
21239;SDS011;10778;48.962;9.018;2022-10-16T03:52:30;7.03;;;1.30;;
21239;SDS011;10778;48.962;9.018;2022-10-16T03:54:57;3.42;;;1.52;;
21239;SDS011;10778;48.962;9.018;2022-10-16T03:57:23;7.75;;;1.40;;
21239;SDS011;10778;48.962;9.018;2022-10-16T03:59:50;6.43;;;1.45;;
21239;SDS011;10778;48.962;9.018;2022-10-16T04:02:16;7.43;;;1.60;;
21239;SDS011;10778;48.962;9.018;2022-10-16T04:04:42;4.70;;;1.50;;
21239;SDS011;10778;48.962;9.018;2022-10-16T04:07:08;5.82;;;1.42;;
21239;SDS011;10778;48.962;9.018;2022-10-16T04:09:34;2.83;;;1.20;;
21239;SDS011;10778;48.962;9.018;2022-10-16T04:12:00;8.00;;;1.70;;
21239;SDS011;10778;48.962;9.018;2022-10-16T04:14:26;7.57;;;1.50;;
21239;SDS011;10778;48.962;9.018;2022-10-16T04:16:52;8.55;;;1.60;;
21239;SDS011;10778;48.962;9.018;2022-10-16T04:19:18;4.45;;;1.27;;
21239;SDS011;10778;48.962;9.018;2022-10-16T04:21:44;16.02;;;1.85;;
21239;SDS011;10778;48.962;9.018;2022-10-16T04:24:10;6.18;;;1.42;;
21239;SDS011;10778;48.962;9.018;2022-10-16T04:26:37;5.65;;;1.48;;
21239;SDS011;10778;48.962;9.018;2022-10-16T04:29:03;8.40;;;1.60;;
21239;SDS011;10778;48.962;9.018;2022-10-16T04:31:29;6.22;;;1.52;;
21239;SDS011;10778;48.962;9.018;2022-10-16T04:33:55;8.95;;;1.50;;
21239;SDS011;10778;48.962;9.018;2022-10-16T04:36:21;3.88;;;1.40;;
21239;SDS011;10778;48.962;9.018;2022-10-16T04:38:47;6.53;;;1.73;;
21239;SDS011;10778;48.962;9.018;2022-10-16T04:41:13;4.38;;;1.45;;
21239;SDS011;10778;48.962;9.018;2022-10-16T04:43:39;3.55;;;1.70;;
21239;SDS011;10778;48.962;9.018;2022-10-16T04:46:05;3.38;;;1.50;;
21239;SDS011;10778;48.962;9.018;2022-10-16T04:48:31;6.22;;;1.42;;
21239;SDS011;10778;48.962;9.018;2022-10-16T04:50:57;6.30;;;1.65;;
21239;SDS011;10778;48.962;9.018;2022-10-16T04:53:24;6.95;;;1.33;;
21239;SDS011;10778;48.962;9.018;2022-10-16T04:55:50;12.38;;;2.00;;
21239;SDS011;10778;48.962;9.018;2022-10-16T04:58:16;4.88;;;1.60;;
21239;SDS011;10778;48.962;9.018;2022-10-16T05:00:43;10.13;;;1.48;;
21239;SDS011;10778;48.962;9.018;2022-10-16T05:03:09;6.07;;;1.63;;
21239;SDS011;10778;48.962;9.018;2022-10-16T05:05:36;7.30;;;1.80;;
21239;SDS011;10778;48.962;9.018;2022-10-16T05:08:02;6.85;;;1.67;;
21239;SDS011;10778;48.962;9.018;2022-10-16T05:10:28;5.68;;;1.45;;
21239;SDS011;10778;48.962;9.018;2022-10-16T05:12:54;4.10;;;1.45;;
21239;SDS011;10778;48.962;9.018;2022-10-16T05:15:20;7.15;;;1.60;;
21239;SDS011;10778;48.962;9.018;2022-10-16T05:17:46;4.40;;;1.40;;
21239;SDS011;10778;48.962;9.018;2022-10-16T05:20:12;5.97;;;1.67;;
21239;SDS011;10778;48.962;9.018;2022-10-16T05:22:38;7.75;;;1.50;;
21239;SDS011;10778;48.962;9.018;2022-10-16T05:25:04;6.00;;;1.50;;
21239;SDS011;10778;48.962;9.018;2022-10-16T05:27:31;11.30;;;2.05;;
21239;SDS011;10778;48.962;9.018;2022-10-16T05:29:57;3.42;;;1.45;;
21239;SDS011;10778;48.962;9.018;2022-10-16T05:32:23;3.75;;;1.50;;
21239;SDS011;10778;48.962;9.018;2022-10-16T05:34:50;5.20;;;1.33;;
21239;SDS011;10778;48.962;9.018;2022-10-16T05:37:16;7.22;;;1.50;;
21239;SDS011;10778;48.962;9.018;2022-10-16T05:39:42;6.53;;;1.65;;
21239;SDS011;10778;48.962;9.018;2022-10-16T05:42:08;7.57;;;1.90;;
21239;SDS011;10778;48.962;9.018;2022-10-16T05:44:34;14.45;;;2.20;;
21239;SDS011;10778;48.962;9.018;2022-10-16T05:47:00;6.55;;;1.90;;
21239;SDS011;10778;48.962;9.018;2022-10-16T05:49:26;4.32;;;1.70;;
21239;SDS011;10778;48.962;9.018;2022-10-16T05:51:52;6.35;;;2.28;;
21239;SDS011;10778;48.962;9.018;2022-10-16T05:54:18;6.82;;;2.55;;
21239;SDS011;10778;48.962;9.018;2022-10-16T05:56:44;5.15;;;2.78;;
21239;SDS011;10778;48.962;9.018;2022-10-16T05:59:10;5.22;;;3.17;;
21239;SDS011;10778;48.962;9.018;2022-10-16T06:01:36;4.88;;;1.90;;
21239;SDS011;10778;48.962;9.018;2022-10-16T06:04:02;4.10;;;2.15;;
21239;SDS011;10778;48.962;9.018;2022-10-16T06:06:28;7.80;;;2.80;;
21239;SDS011;10778;48.962;9.018;2022-10-16T06:08:56;9.77;;;2.40;;
21239;SDS011;10778;48.962;9.018;2022-10-16T06:11:24;6.53;;;2.20;;
21239;SDS011;10778;48.962;9.018;2022-10-16T06:13:55;4.28;;;1.80;;
21239;SDS011;10778;48.962;9.018;2022-10-16T06:16:24;3.63;;;1.52;;
21239;SDS011;10778;48.962;9.018;2022-10-16T06:18:55;6.22;;;2.05;;
21239;SDS011;10778;48.962;9.018;2022-10-16T06:21:24;8.70;;;2.08;;
21239;SDS011;10778;48.962;9.018;2022-10-16T06:23:51;3.53;;;1.90;;
21239;SDS011;10778;48.962;9.018;2022-10-16T06:26:19;3.35;;;2.20;;
21239;SDS011;10778;48.962;9.018;2022-10-16T06:28:46;4.85;;;1.80;;
21239;SDS011;10778;48.962;9.018;2022-10-16T06:31:13;6.95;;;2.03;;
21239;SDS011;10778;48.962;9.018;2022-10-16T06:33:40;7.40;;;2.20;;
21239;SDS011;10778;48.962;9.018;2022-10-16T06:36:07;3.58;;;1.90;;
21239;SDS011;10778;48.962;9.018;2022-10-16T06:38:38;4.88;;;2.13;;
21239;SDS011;10778;48.962;9.018;2022-10-16T06:41:05;6.30;;;1.80;;
21239;SDS011;10778;48.962;9.018;2022-10-16T06:43:32;7.90;;;3.10;;
21239;SDS011;10778;48.962;9.018;2022-10-16T06:46:01;12.02;;;4.43;;
21239;SDS011;10778;48.962;9.018;2022-10-16T06:48:28;7.22;;;3.80;;
21239;SDS011;10778;48.962;9.018;2022-10-16T06:50:56;6.55;;;3.85;;
21239;SDS011;10778;48.962;9.018;2022-10-16T06:53:26;8.95;;;3.53;;
21239;SDS011;10778;48.962;9.018;2022-10-16T06:55:55;6.90;;;3.42;;
21239;SDS011;10778;48.962;9.018;2022-10-16T06:58:21;8.57;;;4.00;;
21239;SDS011;10778;48.962;9.018;2022-10-16T07:00:47;12.88;;;3.40;;
21239;SDS011;10778;48.962;9.018;2022-10-16T07:03:13;6.25;;;2.75;;
21239;SDS011;10778;48.962;9.018;2022-10-16T07:05:43;5.25;;;2.63;;
21239;SDS011;10778;48.962;9.018;2022-10-16T07:08:09;6.30;;;2.17;;
21239;SDS011;10778;48.962;9.018;2022-10-16T07:10:35;4.53;;;2.30;;
21239;SDS011;10778;48.962;9.018;2022-10-16T07:13:01;9.40;;;2.78;;
21239;SDS011;10778;48.962;9.018;2022-10-16T07:15:27;2.63;;;2.17;;
21239;SDS011;10778;48.962;9.018;2022-10-16T07:17:53;4.50;;;2.45;;
21239;SDS011;10778;48.962;9.018;2022-10-16T07:20:20;8.05;;;2.97;;
21239;SDS011;10778;48.962;9.018;2022-10-16T07:22:46;16.23;;;9.77;;
21239;SDS011;10778;48.962;9.018;2022-10-16T07:25:12;13.63;;;10.13;;
21239;SDS011;10778;48.962;9.018;2022-10-16T07:27:38;19.55;;;13.60;;
21239;SDS011;10778;48.962;9.018;2022-10-16T07:30:04;16.63;;;10.57;;
21239;SDS011;10778;48.962;9.018;2022-10-16T07:32:31;9.98;;;7.65;;
21239;SDS011;10778;48.962;9.018;2022-10-16T07:34:58;9.65;;;5.75;;
21239;SDS011;10778;48.962;9.018;2022-10-16T07:37:24;14.55;;;8.35;;
21239;SDS011;10778;48.962;9.018;2022-10-16T07:39:50;16.35;;;8.40;;
21239;SDS011;10778;48.962;9.018;2022-10-16T07:42:16;7.38;;;5.85;;
21239;SDS011;10778;48.962;9.018;2022-10-16T07:44:42;7.10;;;3.70;;
21239;SDS011;10778;48.962;9.018;2022-10-16T07:47:08;7.88;;;3.60;;
21239;SDS011;10778;48.962;9.018;2022-10-16T07:49:35;8.55;;;4.63;;
21239;SDS011;10778;48.962;9.018;2022-10-16T07:52:01;8.73;;;4.28;;
21239;SDS011;10778;48.962;9.018;2022-10-16T07:54:27;7.63;;;3.92;;
21239;SDS011;10778;48.962;9.018;2022-10-16T07:56:53;5.20;;;3.00;;
21239;SDS011;10778;48.962;9.018;2022-10-16T07:59:19;8.40;;;3.03;;
21239;SDS011;10778;48.962;9.018;2022-10-16T08:01:45;5.82;;;2.80;;
21239;SDS011;10778;48.962;9.018;2022-10-16T08:04:11;6.65;;;2.60;;
21239;SDS011;10778;48.962;9.018;2022-10-16T08:06:37;5.13;;;2.53;;
21239;SDS011;10778;48.962;9.018;2022-10-16T08:09:05;6.70;;;2.67;;
21239;SDS011;10778;48.962;9.018;2022-10-16T08:11:32;9.10;;;2.97;;
21239;SDS011;10778;48.962;9.018;2022-10-16T08:13:59;5.18;;;2.40;;
21239;SDS011;10778;48.962;9.018;2022-10-16T08:16:25;3.35;;;1.95;;
21239;SDS011;10778;48.962;9.018;2022-10-16T08:18:51;4.05;;;2.25;;
21239;SDS011;10778;48.962;9.018;2022-10-16T08:21:18;3.75;;;1.98;;
21239;SDS011;10778;48.962;9.018;2022-10-16T08:23:46;6.15;;;2.10;;
21239;SDS011;10778;48.962;9.018;2022-10-16T08:26:13;3.17;;;1.70;;
21239;SDS011;10778;48.962;9.018;2022-10-16T08:28:39;2.90;;;1.80;;
21239;SDS011;10778;48.962;9.018;2022-10-16T08:31:12;4.78;;;1.73;;
21239;SDS011;10778;48.962;9.018;2022-10-16T08:33:40;4.47;;;1.90;;
21239;SDS011;10778;48.962;9.018;2022-10-16T08:36:09;3.72;;;1.90;;
21239;SDS011;10778;48.962;9.018;2022-10-16T08:38:36;8.30;;;2.10;;
21239;SDS011;10778;48.962;9.018;2022-10-16T08:41:17;4.28;;;2.00;;
21239;SDS011;10778;48.962;9.018;2022-10-16T08:49:10;4.05;;;1.65;;
21239;SDS011;10778;48.962;9.018;2022-10-16T08:51:41;4.18;;;1.60;;
21239;SDS011;10778;48.962;9.018;2022-10-16T08:54:21;4.72;;;1.60;;
21239;SDS011;10778;48.962;9.018;2022-10-16T08:56:54;3.42;;;1.80;;
21239;SDS011;10778;48.962;9.018;2022-10-16T08:59:22;5.05;;;1.80;;
21239;SDS011;10778;48.962;9.018;2022-10-16T09:01:49;2.47;;;1.60;;
21239;SDS011;10778;48.962;9.018;2022-10-16T09:07:06;4.63;;;1.90;;
21239;SDS011;10778;48.962;9.018;2022-10-16T09:12:48;2.40;;;1.67;;
21239;SDS011;10778;48.962;9.018;2022-10-16T09:15:36;2.63;;;1.58;;
21239;SDS011;10778;48.962;9.018;2022-10-16T09:18:20;4.68;;;1.60;;
21239;SDS011;10778;48.962;9.018;2022-10-16T09:23:36;5.28;;;1.50;;
21239;SDS011;10778;48.962;9.018;2022-10-16T09:26:03;2.65;;;1.30;;
21239;SDS011;10778;48.962;9.018;2022-10-16T09:28:31;4.47;;;1.40;;
21239;SDS011;10778;48.962;9.018;2022-10-16T09:30:57;2.05;;;1.35;;
21239;SDS011;10778;48.962;9.018;2022-10-16T09:33:25;2.45;;;1.13;;
21239;SDS011;10778;48.962;9.018;2022-10-16T09:35:56;3.92;;;1.40;;
21239;SDS011;10778;48.962;9.018;2022-10-16T09:38:28;2.38;;;1.23;;
21239;SDS011;10778;48.962;9.018;2022-10-16T09:40:57;2.72;;;1.20;;
21239;SDS011;10778;48.962;9.018;2022-10-16T09:43:27;1.80;;;1.33;;
21239;SDS011;10778;48.962;9.018;2022-10-16T09:46:02;4.18;;;1.30;;
21239;SDS011;10778;48.962;9.018;2022-10-16T09:48:43;2.30;;;1.30;;
21239;SDS011;10778;48.962;9.018;2022-10-16T09:51:17;2.88;;;1.33;;
21239;SDS011;10778;48.962;9.018;2022-10-16T09:53:47;2.50;;;1.10;;
21239;SDS011;10778;48.962;9.018;2022-10-16T09:56:30;2.60;;;1.10;;
21239;SDS011;10778;48.962;9.018;2022-10-16T09:58:59;2.83;;;1.00;;
21239;SDS011;10778;48.962;9.018;2022-10-16T10:01:35;3.05;;;1.20;;
21239;SDS011;10778;48.962;9.018;2022-10-16T10:04:05;2.75;;;1.20;;
21239;SDS011;10778;48.962;9.018;2022-10-16T10:06:33;3.03;;;1.10;;
21239;SDS011;10778;48.962;9.018;2022-10-16T10:09:05;3.45;;;1.23;;
21239;SDS011;10778;48.962;9.018;2022-10-16T10:11:48;3.35;;;1.20;;
21239;SDS011;10778;48.962;9.018;2022-10-16T10:14:25;4.18;;;1.20;;
21239;SDS011;10778;48.962;9.018;2022-10-16T10:27:30;3.35;;;1.25;;
21239;SDS011;10778;48.962;9.018;2022-10-16T10:30:23;5.03;;;1.60;;
21239;SDS011;10778;48.962;9.018;2022-10-16T10:38:50;3.42;;;1.52;;
21239;SDS011;10778;48.962;9.018;2022-10-16T10:46:34;5.13;;;1.60;;
21239;SDS011;10778;48.962;9.018;2022-10-16T10:54:15;4.07;;;1.40;;
21239;SDS011;10778;48.962;9.018;2022-10-16T10:57:15;2.22;;;1.60;;
21239;SDS011;10778;48.962;9.018;2022-10-16T11:02:26;2.67;;;1.50;;
21239;SDS011;10778;48.962;9.018;2022-10-16T11:08:13;4.07;;;1.60;;
21239;SDS011;10778;48.962;9.018;2022-10-16T11:10:45;2.80;;;1.48;;
21239;SDS011;10778;48.962;9.018;2022-10-16T11:13:23;2.65;;;1.50;;
21239;SDS011;10778;48.962;9.018;2022-10-16T11:15:54;3.53;;;1.20;;
21239;SDS011;10778;48.962;9.018;2022-10-16T11:18:30;2.38;;;1.30;;
21239;SDS011;10778;48.962;9.018;2022-10-16T11:21:08;3.72;;;1.40;;
21239;SDS011;10778;48.962;9.018;2022-10-16T11:26:11;3.50;;;1.42;;
21239;SDS011;10778;48.962;9.018;2022-10-16T11:28:43;1.30;;;1.20;;
21239;SDS011;10778;48.962;9.018;2022-10-16T11:31:16;1.60;;;1.25;;
21239;SDS011;10778;48.962;9.018;2022-10-16T11:36:28;4.70;;;1.30;;
21239;SDS011;10778;48.962;9.018;2022-10-16T11:39:08;2.03;;;1.30;;
21239;SDS011;10778;48.962;9.018;2022-10-16T11:41:58;2.97;;;1.30;;
21239;SDS011;10778;48.962;9.018;2022-10-16T11:44:55;2.50;;;1.38;;
21239;SDS011;10778;48.962;9.018;2022-10-16T11:53:03;3.00;;;1.45;;
21239;SDS011;10778;48.962;9.018;2022-10-16T11:55:40;2.45;;;1.20;;
21239;SDS011;10778;48.962;9.018;2022-10-16T11:58:08;5.38;;;1.30;;
21239;SDS011;10778;48.962;9.018;2022-10-16T12:00:45;3.92;;;1.20;;
21239;SDS011;10778;48.962;9.018;2022-10-16T12:03:21;2.83;;;1.20;;
21239;SDS011;10778;48.962;9.018;2022-10-16T12:08:43;3.95;;;1.40;;
21239;SDS011;10778;48.962;9.018;2022-10-16T12:13:52;2.05;;;1.15;;
21239;SDS011;10778;48.962;9.018;2022-10-16T12:16:33;3.83;;;1.10;;
21239;SDS011;10778;48.962;9.018;2022-10-16T12:19:03;1.73;;;1.17;;
21239;SDS011;10778;48.962;9.018;2022-10-16T12:21:42;1.40;;;1.30;;
21239;SDS011;10778;48.962;9.018;2022-10-16T12:26:57;4.50;;;1.40;;
21239;SDS011;10778;48.962;9.018;2022-10-16T12:29:32;2.33;;;1.25;;
21239;SDS011;10778;48.962;9.018;2022-10-16T12:34:55;3.03;;;1.40;;
21239;SDS011;10778;48.962;9.018;2022-10-16T12:37:24;3.53;;;1.23;;
21239;SDS011;10778;48.962;9.018;2022-10-16T12:39:57;2.65;;;1.20;;
21239;SDS011;10778;48.962;9.018;2022-10-16T12:44:53;3.25;;;1.48;;
21239;SDS011;10778;48.962;9.018;2022-10-16T12:47:21;3.80;;;1.30;;
21239;SDS011;10778;48.962;9.018;2022-10-16T12:49:48;2.83;;;1.40;;
21239;SDS011;10778;48.962;9.018;2022-10-16T12:52:24;4.05;;;1.20;;
21239;SDS011;10778;48.962;9.018;2022-10-16T12:54:52;2.30;;;1.30;;
21239;SDS011;10778;48.962;9.018;2022-10-16T12:57:34;3.35;;;1.15;;
21239;SDS011;10778;48.962;9.018;2022-10-16T13:00:09;4.70;;;1.27;;
21239;SDS011;10778;48.962;9.018;2022-10-16T13:28:21;2.55;;;1.23;;
21239;SDS011;10778;48.962;9.018;2022-10-16T13:30:55;6.25;;;1.50;;
21239;SDS011;10778;48.962;9.018;2022-10-16T13:33:26;2.70;;;1.10;;
21239;SDS011;10778;48.962;9.018;2022-10-16T13:35:58;2.60;;;1.33;;
21239;SDS011;10778;48.962;9.018;2022-10-16T13:38:25;3.70;;;1.20;;
21239;SDS011;10778;48.962;9.018;2022-10-16T13:43:27;3.55;;;1.40;;
21239;SDS011;10778;48.962;9.018;2022-10-16T13:46:12;1.58;;;1.15;;
21239;SDS011;10778;48.962;9.018;2022-10-16T13:48:40;4.10;;;1.30;;
21239;SDS011;10778;48.962;9.018;2022-10-16T13:53:40;2.30;;;1.20;;
21239;SDS011;10778;48.962;9.018;2022-10-16T13:56:11;3.42;;;1.30;;
21239;SDS011;10778;48.962;9.018;2022-10-16T13:58:40;3.05;;;1.50;;
21239;SDS011;10778;48.962;9.018;2022-10-16T14:01:29;2.13;;;1.20;;
21239;SDS011;10778;48.962;9.018;2022-10-16T14:04:02;3.20;;;1.38;;
21239;SDS011;10778;48.962;9.018;2022-10-16T14:06:31;4.07;;;1.30;;
21239;SDS011;10778;48.962;9.018;2022-10-16T14:09:04;2.25;;;1.30;;
21239;SDS011;10778;48.962;9.018;2022-10-16T14:11:33;2.38;;;1.25;;
21239;SDS011;10778;48.962;9.018;2022-10-16T14:14:12;2.58;;;1.50;;
21239;SDS011;10778;48.962;9.018;2022-10-16T14:16:39;2.50;;;1.40;;
21239;SDS011;10778;48.962;9.018;2022-10-16T14:19:45;4.47;;;1.27;;
21239;SDS011;10778;48.962;9.018;2022-10-16T14:22:00;1.75;;;1.10;;
21239;SDS011;10778;48.962;9.018;2022-10-16T14:27:00;1.85;;;1.17;;
21239;SDS011;10778;48.962;9.018;2022-10-16T14:29:28;3.70;;;1.30;;
21239;SDS011;10778;48.962;9.018;2022-10-16T14:31:59;4.07;;;1.35;;
21239;SDS011;10778;48.962;9.018;2022-10-16T14:34:32;2.78;;;1.20;;
21239;SDS011;10778;48.962;9.018;2022-10-16T14:37:23;3.50;;;1.20;;
21239;SDS011;10778;48.962;9.018;2022-10-16T14:39:53;3.05;;;1.20;;
21239;SDS011;10778;48.962;9.018;2022-10-16T14:42:21;2.85;;;1.38;;
21239;SDS011;10778;48.962;9.018;2022-10-16T14:44:50;2.08;;;1.30;;
21239;SDS011;10778;48.962;9.018;2022-10-16T14:47:19;3.08;;;1.20;;
21239;SDS011;10778;48.962;9.018;2022-10-16T14:49:50;4.05;;;1.60;;
21239;SDS011;10778;48.962;9.018;2022-10-16T14:52:16;5.10;;;1.58;;
21239;SDS011;10778;48.962;9.018;2022-10-16T14:54:43;6.07;;;1.73;;
21239;SDS011;10778;48.962;9.018;2022-10-16T14:57:16;6.22;;;1.52;;
21239;SDS011;10778;48.962;9.018;2022-10-16T14:59:45;7.32;;;1.63;;
21239;SDS011;10778;48.962;9.018;2022-10-16T15:04:59;4.30;;;1.20;;
21239;SDS011;10778;48.962;9.018;2022-10-16T15:07:36;4.53;;;1.50;;
21239;SDS011;10778;48.962;9.018;2022-10-16T15:10:02;4.50;;;1.60;;
21239;SDS011;10778;48.962;9.018;2022-10-16T15:12:28;5.47;;;1.40;;
21239;SDS011;10778;48.962;9.018;2022-10-16T15:14:54;4.53;;;1.60;;
21239;SDS011;10778;48.962;9.018;2022-10-16T15:17:20;3.45;;;1.35;;
21239;SDS011;10778;48.962;9.018;2022-10-16T15:19:46;6.72;;;1.50;;
21239;SDS011;10778;48.962;9.018;2022-10-16T15:22:12;5.07;;;1.60;;
21239;SDS011;10778;48.962;9.018;2022-10-16T15:24:39;2.15;;;1.60;;
21239;SDS011;10778;48.962;9.018;2022-10-16T15:27:05;4.68;;;1.70;;
21239;SDS011;10778;48.962;9.018;2022-10-16T15:29:31;4.45;;;1.80;;
21239;SDS011;10778;48.962;9.018;2022-10-16T15:31:57;5.93;;;1.58;;
21239;SDS011;10778;48.962;9.018;2022-10-16T15:34:23;3.60;;;1.48;;
21239;SDS011;10778;48.962;9.018;2022-10-16T15:36:49;6.95;;;1.83;;
21239;SDS011;10778;48.962;9.018;2022-10-16T15:39:16;2.53;;;1.60;;
21239;SDS011;10778;48.962;9.018;2022-10-16T15:41:45;3.65;;;1.83;;
21239;SDS011;10778;48.962;9.018;2022-10-16T15:44:16;4.95;;;1.80;;
21239;SDS011;10778;48.962;9.018;2022-10-16T15:46:43;2.28;;;1.50;;
21239;SDS011;10778;48.962;9.018;2022-10-16T15:49:13;1.52;;;1.27;;
21239;SDS011;10778;48.962;9.018;2022-10-16T15:51:40;7.95;;;1.60;;
21239;SDS011;10778;48.962;9.018;2022-10-16T15:54:07;2.42;;;1.30;;
21239;SDS011;10778;48.962;9.018;2022-10-16T15:56:34;5.38;;;1.40;;
21239;SDS011;10778;48.962;9.018;2022-10-16T15:59:02;3.97;;;1.58;;
21239;SDS011;10778;48.962;9.018;2022-10-16T16:01:32;4.63;;;1.83;;
21239;SDS011;10778;48.962;9.018;2022-10-16T16:04:01;4.22;;;2.33;;
21239;SDS011;10778;48.962;9.018;2022-10-16T16:06:27;14.07;;;9.73;;
21239;SDS011;10778;48.962;9.018;2022-10-16T16:08:54;9.63;;;5.55;;
21239;SDS011;10778;48.962;9.018;2022-10-16T16:11:20;5.60;;;2.45;;
21239;SDS011;10778;48.962;9.018;2022-10-16T16:13:48;3.00;;;2.00;;
21239;SDS011;10778;48.962;9.018;2022-10-16T16:16:15;4.70;;;1.60;;
21239;SDS011;10778;48.962;9.018;2022-10-16T16:18:42;7.20;;;1.75;;
21239;SDS011;10778;48.962;9.018;2022-10-16T16:21:10;5.53;;;2.00;;
21239;SDS011;10778;48.962;9.018;2022-10-16T16:23:37;4.72;;;1.90;;
21239;SDS011;10778;48.962;9.018;2022-10-16T16:26:04;5.35;;;2.38;;
21239;SDS011;10778;48.962;9.018;2022-10-16T16:28:37;4.70;;;2.47;;
21239;SDS011;10778;48.962;9.018;2022-10-16T16:31:04;9.25;;;2.50;;
21239;SDS011;10778;48.962;9.018;2022-10-16T16:33:31;9.00;;;2.10;;
21239;SDS011;10778;48.962;9.018;2022-10-16T16:35:58;4.85;;;1.90;;
21239;SDS011;10778;48.962;9.018;2022-10-16T16:38:25;4.97;;;1.83;;
21239;SDS011;10778;48.962;9.018;2022-10-16T16:40:52;6.45;;;1.88;;
21239;SDS011;10778;48.962;9.018;2022-10-16T16:43:19;5.97;;;2.00;;
21239;SDS011;10778;48.962;9.018;2022-10-16T16:45:47;8.52;;;2.33;;
21239;SDS011;10778;48.962;9.018;2022-10-16T16:48:13;6.28;;;1.92;;
21239;SDS011;10778;48.962;9.018;2022-10-16T16:50:39;5.03;;;2.10;;
21239;SDS011;10778;48.962;9.018;2022-10-16T16:53:05;9.68;;;2.30;;
21239;SDS011;10778;48.962;9.018;2022-10-16T16:55:32;6.28;;;2.40;;
21239;SDS011;10778;48.962;9.018;2022-10-16T16:57:59;9.57;;;2.28;;
21239;SDS011;10778;48.962;9.018;2022-10-16T17:00:25;4.63;;;2.17;;